Time;durP1;ratioP1;P1;durP2;ratioP2;P2;SDS_P1;SDS_P2;PMS_P1;PMS_P2;Temp;Humidity;BMP_temperature;BMP_pressure;BME280_temperature;BME280_humidity;BME280_pressure;Samples;Min_cycle;Max_cycle;Signal;HPM_P1;HPM_P2
2022/07/30 00:01:10;;;;;;;8.25;6.63;;;;;;;15.50;100.00;101806.47;5245227;28;20475;-67
2022/07/30 00:03:40;;;;;;;7.80;7.20;;;;;;;15.44;100.00;101799.38;5245687;28;20013;-67
2022/07/30 00:06:11;;;;;;;8.80;8.07;;;;;;;15.41;100.00;101792.56;5245949;28;20392;-67
2022/07/30 00:08:41;;;;;;;13.00;7.72;;;;;;;15.40;100.00;101800.97;5245851;28;20316;-67
2022/07/30 00:11:12;;;;;;;14.85;7.85;;;;;;;15.32;100.00;101796.84;5227348;28;20055;-68
2022/07/30 00:13:42;;;;;;;7.43;7.03;;;;;;;15.29;100.00;101796.59;5245564;28;20028;-67
2022/07/30 00:16:13;;;;;;;6.85;6.03;;;;;;;15.21;100.00;101795.19;5243838;28;20029;-67
2022/07/30 00:18:43;;;;;;;6.38;5.97;;;;;;;15.13;100.00;101791.06;5244428;28;20029;-68
2022/07/30 00:21:13;;;;;;;9.95;7.38;;;;;;;15.11;100.00;101792.41;5244174;28;20111;-67
2022/07/30 00:23:44;;;;;;;8.25;7.47;;;;;;;15.12;100.00;101792.13;5244293;28;20388;-68
2022/07/30 00:26:14;;;;;;;7.80;7.15;;;;;;;15.02;100.00;101764.88;5244361;28;20366;-67
2022/07/30 00:28:45;;;;;;;7.60;7.10;;;;;;;15.14;100.00;101791.88;5243975;28;20028;-68
2022/07/30 00:31:15;;;;;;;8.70;6.60;;;;;;;15.11;100.00;101786.97;5244395;28;20021;-69
2022/07/30 00:33:45;;;;;;;10.50;7.40;;;;;;;15.13;100.00;101791.06;5225639;28;20071;-69
2022/07/30 00:36:16;;;;;;;11.00;9.35;;;;;;;15.11;100.00;101790.50;5244036;28;20028;-67
2022/07/30 00:38:46;;;;;;;9.60;8.48;;;;;;;15.06;100.00;101781.47;5244019;28;20491;-68
2022/07/30 00:41:17;;;;;;;12.65;11.65;;;;;;;15.05;100.00;101782.56;5243940;28;20028;-69
2022/07/30 00:43:47;;;;;;;11.13;10.05;;;;;;;15.04;100.00;101784.47;5225759;28;20103;-68
2022/07/30 00:46:18;;;;;;;11.00;7.97;;;;;;;14.97;100.00;101780.38;5243646;28;20510;-68
2022/07/30 00:48:48;;;;;;;8.27;7.45;;;;;;;14.93;100.00;101787.41;5226218;28;20047;-68
2022/07/30 00:51:18;;;;;;;11.35;10.15;;;;;;;14.85;100.00;101786.81;5243875;28;20028;-68
2022/07/30 00:53:49;;;;;;;10.18;9.15;;;;;;;14.81;100.00;101782.97;5242964;28;20397;-68
2022/07/30 00:56:19;;;;;;;9.85;8.98;;;;;;;14.82;100.00;101784.59;5226193;28;20032;-68
2022/07/30 00:58:50;;;;;;;9.60;8.68;;;;;;;14.74;100.00;101768.78;5244236;28;20020;-68
2022/07/30 01:01:20;;;;;;;9.65;8.45;;;;;;;14.85;100.00;101784.09;5243782;28;20020;-69
2022/07/30 01:03:51;;;;;;;10.80;9.85;;;;;;;14.73;100.00;101777.19;5225611;28;20082;-68
2022/07/30 01:06:21;;;;;;;10.90;9.98;;;;;;;14.65;100.00;101772.25;5243520;28;20029;-69
2022/07/30 01:08:53;;;;;;;10.30;9.38;;;;;;;14.66;100.00;101780.16;5244082;28;20392;-69
2022/07/30 01:11:30;;;;;;;17.67;10.88;;;;;;;14.59;100.00;101763.25;5243317;28;20437;-67
2022/07/30 01:14:01;;;;;;;18.05;10.13;;;;;;;14.73;100.00;101774.47;5243225;28;20033;-69
2022/07/30 01:16:32;;;;;;;11.35;9.82;;;;;;;14.55;100.00;101756.69;5243447;28;20484;-69
2022/07/30 01:22:09;;;;;;;11.50;10.70;;;;;;;14.68;100.00;101774.47;5244226;28;20545;-68
2022/07/30 01:24:46;;;;;;;11.43;10.48;;;;;;;14.67;100.00;101772.81;5243207;28;20048;-68
2022/07/30 01:27:19;;;;;;;24.88;12.05;;;;;;;14.66;100.00;101782.88;5243189;28;20040;-68
2022/07/30 01:29:53;;;;;;;14.63;10.13;;;;;;;14.52;100.00;101770.78;5243793;28;20031;-68
2022/07/30 01:32:25;;;;;;;11.98;10.93;;;;;;;14.38;100.00;101761.41;5244692;28;20028;-68
2022/07/30 01:34:58;;;;;;;10.70;9.82;;;;;;;14.34;100.00;101763.00;5247042;28;20051;-68
2022/07/30 01:37:30;;;;;;;11.27;10.30;;;;;;;14.31;100.00;101777.13;5246907;28;20497;-68
2022/07/30 01:40:02;;;;;;;11.75;10.60;;;;;;;14.31;100.00;101777.94;5247685;28;20032;-68
2022/07/30 01:42:34;;;;;;;14.77;10.32;;;;;;;14.25;100.00;101784.41;5247064;28;20067;-67
2022/07/30 01:45:07;;;;;;;10.68;9.60;;;;;;;14.24;100.00;101784.66;5246504;28;20013;-68
2022/07/30 01:47:39;;;;;;;9.95;9.35;;;;;;;14.18;100.00;101775.63;5229158;28;20111;-69
2022/07/30 01:50:13;;;;;;;12.00;11.02;;;;;;;14.23;100.00;101785.72;5247158;28;20028;-69
2022/07/30 01:52:46;;;;;;;12.30;11.07;;;;;;;14.21;100.00;101783.25;5247344;28;20083;-69
2022/07/30 01:55:24;;;;;;;12.23;11.23;;;;;;;14.23;100.00;101783.84;5246438;28;20028;-69
2022/07/30 01:57:56;;;;;;;13.70;12.50;;;;;;;14.25;100.00;101784.41;5247195;28;20032;-69
2022/07/30 02:00:29;;;;;;;15.07;13.68;;;;;;;14.31;100.00;101787.97;5228888;28;20028;-69
2022/07/30 02:03:00;;;;;;;28.98;12.85;;;;;;;14.32;100.00;101785.00;5246589;28;20031;-69
2022/07/30 02:05:33;;;;;;;14.13;12.93;;;;;;;14.31;100.00;101783.38;5246455;28;20465;-69
2022/07/30 02:08:11;;;;;;;13.10;12.00;;;;;;;14.34;100.00;101782.84;5246998;28;20031;-69
2022/07/30 02:10:50;;;;;;;14.77;12.27;;;;;;;14.36;100.00;101788.03;5246441;28;20038;-69
2022/07/30 02:13:25;;;;;;;15.07;13.52;;;;;;;14.36;100.00;101788.03;5228571;28;20400;-69
2022/07/30 02:16:07;;;;;;;14.27;12.90;;;;;;;14.27;100.00;101771.38;5246578;28;20095;-69
2022/07/30 02:18:55;;;;;;;12.60;11.43;;;;;;;14.19;100.00;101766.41;5246520;28;20034;-69
2022/07/30 02:21:27;;;;;;;12.45;11.48;;;;;;;14.31;100.00;101783.38;5244320;28;20020;-69
2022/07/30 02:24:00;;;;;;;13.18;11.95;;;;;;;14.30;100.00;101791.78;5245895;28;20020;-69
2022/07/30 02:26:33;;;;;;;13.98;12.90;;;;;;;14.30;100.00;101797.22;5246567;28;20032;-68
2022/07/30 02:29:05;;;;;;;12.30;11.40;;;;;;;14.24;100.00;101792.81;5246445;28;20025;-68
2022/07/30 02:31:38;;;;;;;9.90;9.25;;;;;;;14.16;100.00;101797.63;5246292;28;20383;-67
2022/07/30 02:34:11;;;;;;;11.40;10.10;;;;;;;14.10;100.00;101795.94;5245928;28;20381;-68
2022/07/30 02:36:44;;;;;;;14.63;11.43;;;;;;;14.08;100.00;101800.00;5228474;28;20034;-68
2022/07/30 02:39:15;;;;;;;18.23;14.57;;;;;;;13.90;100.00;101787.56;5246062;28;20313;-68
2022/07/30 02:41:47;;;;;;;15.02;13.35;;;;;;;13.94;100.00;101796.84;5246116;28;20032;-68
2022/07/30 02:44:19;;;;;;;13.88;11.07;;;;;;;13.91;100.00;101800.06;5244676;28;20090;-67
2022/07/30 02:46:51;;;;;;;17.65;15.60;;;;;;;13.82;100.00;101798.91;5245955;28;20025;-67
2022/07/30 02:49:23;;;;;;;16.05;14.50;;;;;;;13.90;100.00;101803.88;5245820;28;20538;-68
2022/07/30 02:51:54;;;;;;;18.40;16.70;;;;;;;13.94;100.00;101798.75;5246173;28;20319;-69
2022/07/30 02:54:27;;;;;;;20.98;15.02;;;;;;;13.90;100.00;101784.03;5244994;28;20559;-68
2022/07/30 02:57:00;;;;;;;15.50;14.15;;;;;;;14.04;100.00;101807.00;5246000;28;20481;-68
2022/07/30 02:59:32;;;;;;;14.63;13.52;;;;;;;14.10;100.00;101800.56;5245186;28;20431;-69
2022/07/30 03:02:03;;;;;;;17.75;15.43;;;;;;;14.10;100.00;101798.66;5245779;28;20020;-68
2022/07/30 03:04:36;;;;;;;13.82;12.82;;;;;;;14.12;100.00;101804.66;5245737;28;20568;-69
2022/07/30 03:07:08;;;;;;;14.45;13.25;;;;;;;14.08;100.00;101808.97;5244883;28;20388;-68
2022/07/30 03:09:41;;;;;;;20.63;15.93;;;;;;;13.99;100.00;101799.63;5245772;28;20232;-68
2022/07/30 03:12:13;;;;;;;13.95;12.85;;;;;;;13.93;100.00;101808.78;5245668;28;20048;-68
2022/07/30 03:14:43;;;;;;;14.52;13.23;;;;;;;13.67;100.00;101771.56;5244231;28;20119;-67
2022/07/30 03:17:16;;;;;;;17.25;14.60;;;;;;;13.86;100.00;101808.16;5245213;28;20095;-67
2022/07/30 03:19:48;;;;;;;15.57;12.88;;;;;;;13.82;100.00;101807.06;5244911;28;20103;-67
2022/07/30 03:22:20;;;;;;;16.67;14.88;;;;;;;13.67;100.00;101791.41;5244625;28;20074;-67
2022/07/30 03:24:53;;;;;;;16.05;14.73;;;;;;;13.79;100.00;101797.53;5226795;28;20119;-69
2022/07/30 03:27:24;;;;;;;16.33;14.63;;;;;;;13.60;100.00;101782.63;5244855;28;20028;-68
2022/07/30 03:29:56;;;;;;;17.73;16.20;;;;;;;13.71;100.00;101805.28;5244599;28;20031;-68
2022/07/30 03:32:27;;;;;;;15.98;14.43;;;;;;;13.67;100.00;101807.69;5269481;22;20032;-77
2022/07/30 03:34:59;;;;;;;15.85;14.38;;;;;;;13.65;100.00;101809.00;5278762;28;20046;-76
2022/07/30 03:38:25;;;;;;;14.15;12.88;;;;;;;13.63;100.00;101813.88;5262827;28;20024;-77
2022/07/30 03:40:57;;;;;;;13.43;12.43;;;;;;;13.13;100.00;101738.88;5274226;28;20028;-76
2022/07/30 03:46:56;;;;;;;14.32;13.18;;;;;;;12.28;100.00;101620.09;5275947;28;20054;-74
2022/07/30 03:49:27;;;;;;;15.32;13.77;;;;;;;13.62;100.00;101812.22;5282910;22;20039;-63
2022/07/30 03:51:58;;;;;;;16.27;15.07;;;;;;;13.59;100.00;101812.72;5286763;28;20020;-63
2022/07/30 03:54:32;;;;;;;15.43;14.07;;;;;;;13.36;100.00;101781.25;5291260;22;20123;-88
2022/07/30 03:57:04;;;;;;;16.13;14.77;;;;;;;13.39;100.00;101781.56;5247624;28;20047;-88
2022/07/30 03:59:34;;;;;;;16.58;15.10;;;;;;;13.58;100.00;101838.22;5229922;28;20020;-90
2022/07/30 04:02:05;;;;;;;14.20;13.02;;;;;;;12.64;100.00;101675.59;5249170;28;20104;-88
2022/07/30 04:04:40;;;;;;;17.15;14.15;;;;;;;13.55;100.00;101833.34;5236891;28;20040;-88
2022/07/30 04:07:11;;;;;;;18.85;16.52;;;;;;;13.10;100.00;101772.75;5226738;28;20040;-90
2022/07/30 04:09:41;;;;;;;17.25;15.75;;;;;;;12.39;100.00;101635.44;5233158;28;20073;-89
2022/07/30 04:12:12;;;;;;;18.58;16.65;;;;;;;12.08;100.00;101607.06;5237852;28;20021;-89
2022/07/30 04:14:43;;;;;;;14.95;13.60;;;;;;;13.16;100.00;101781.81;5238434;28;20017;-90
2022/07/30 04:17:23;;;;;;;15.07;13.82;;;;;;;12.36;100.00;101663.84;5229615;28;20039;-90
2022/07/30 04:20:00;;;;;;;20.00;12.75;;;;;;;13.55;100.00;101834.16;5235897;28;20028;-90
2022/07/30 04:22:34;;;;;;;22.88;15.23;;;;;;;13.16;100.00;101762.81;5209965;28;20032;-90
2022/07/30 04:25:05;;;;;;;17.52;14.63;;;;;;;13.02;100.00;101742.50;5226929;28;20025;-90
2022/07/30 04:27:37;;;;;;;18.83;15.52;;;;;;;13.30;100.00;101771.38;5227756;28;20025;-90
2022/07/30 04:30:09;;;;;;;15.38;13.85;;;;;;;13.88;100.00;101871.19;5228444;28;20021;-90
2022/07/30 04:32:41;;;;;;;16.70;14.07;;;;;;;13.84;100.00;101853.78;5228649;28;20032;-89
2022/07/30 04:35:11;;;;;;;17.58;15.90;;;;;;;13.12;100.00;101732.63;5244808;28;20093;-89
2022/07/30 04:37:42;;;;;;;16.52;14.43;;;;;;;13.10;100.00;101718.50;5235940;28;20020;-89
2022/07/30 04:40:12;;;;;;;17.58;16.10;;;;;;;13.97;100.00;101864.25;5254174;28;20020;-90
2022/07/30 04:42:46;;;;;;;18.45;16.65;;;;;;;13.39;100.00;101762.56;5255171;28;20040;-89
2022/07/30 04:45:19;;;;;;;17.20;14.27;;;;;;;13.49;100.00;101776.28;5262493;28;20032;-89
2022/07/30 04:47:58;;;;;;;14.77;13.68;;;;;;;14.20;100.00;101895.72;5249902;28;20077;-89
2022/07/30 04:50:29;;;;;;;17.45;16.15;;;;;;;13.62;100.00;101775.03;5219252;28;20097;-89
2022/07/30 04:53:00;;;;;;;21.25;16.83;;;;;;;13.67;100.00;101758.00;5227925;28;20033;-88
2022/07/30 04:55:33;;;;;;;15.52;14.18;;;;;;;13.49;100.00;101711.16;5221494;28;20038;-89
2022/07/30 04:58:06;;;;;;;16.10;14.48;;;;;;;14.12;100.00;101799.22;5229153;28;20022;-89
2022/07/30 05:00:38;;;;;;;15.13;13.75;;;;;;;14.61;100.00;101894.28;5211686;28;20025;-89
2022/07/30 05:03:14;;;;;;;18.95;15.68;;;;;;;14.71;100.00;101886.22;5234849;28;20008;-89
2022/07/30 05:05:46;;;;;;;17.58;16.13;;;;;;;14.25;100.00;101795.25;5246885;28;20033;-90
2022/07/30 05:08:17;;;;;;;22.52;16.25;;;;;;;14.75;100.00;101870.19;5241376;28;20021;-90
2022/07/30 05:10:48;;;;;;;17.33;15.68;;;;;;;14.14;100.00;101780.78;5251905;28;20036;-90
2022/07/30 05:13:18;;;;;;;16.13;14.85;;;;;;;14.86;100.00;101866.50;5234210;28;20174;-90
2022/07/30 05:15:49;;;;;;;15.43;14.05;;;;;;;14.66;100.00;101839.16;5234208;28;20513;-90
2022/07/30 05:18:20;;;;;;;14.77;13.52;;;;;;;13.96;100.00;101713.25;5234584;28;20024;-90
2022/07/30 05:20:50;;;;;;;13.85;12.75;;;;;;;14.96;100.00;101895.69;5252249;28;20027;-91
2022/07/30 05:23:20;;;;;;;13.80;12.68;;;;;;;14.01;100.00;101732.28;5252668;28;20113;-90
2022/07/30 05:25:51;;;;;;;17.25;15.95;;;;;;;14.15;100.00;101733.50;5234332;28;20013;-90
2022/07/30 05:28:21;;;;;;;16.55;15.02;;;;;;;15.11;100.00;101883.00;5233883;28;20082;-90
2022/07/30 05:30:54;;;;;;;14.77;13.32;;;;;;;13.58;100.00;101631.97;5234144;28;20047;-90
2022/07/30 05:33:27;;;;;;;16.13;14.60;;;;;;;14.84;100.00;101855.88;5252015;28;20401;-90
2022/07/30 05:35:59;;;;;;;16.98;15.63;;;;;;;14.29;100.00;101733.06;5256053;28;20032;-90
2022/07/30 05:38:29;;;;;;;17.75;16.45;;;;;;;15.29;100.00;101889.94;5274519;28;20058;-90
2022/07/30 05:41:00;;;;;;;16.20;14.55;;;;;;;14.59;100.00;101765.97;5255020;28;20052;-90
2022/07/30 05:43:30;;;;;;;17.25;15.85;;;;;;;15.23;100.00;101843.91;5272526;28;20084;-90
2022/07/30 05:46:01;;;;;;;19.42;17.88;;;;;;;15.48;100.00;101884.88;5270187;28;20091;-90
2022/07/30 05:48:34;;;;;;;18.63;17.00;;;;;;;14.15;100.00;101681.88;5253201;28;20019;-91
2022/07/30 05:51:04;;;;;;;21.00;18.17;;;;;;;15.71;100.00;101905.44;5270841;28;20141;-90
2022/07/30 05:54:01;;;;;;;21.90;19.58;;;;;;;15.79;100.00;101886.69;5252986;28;20016;-90
2022/07/30 05:57:11;;;;;;;19.58;18.15;;;;;;;14.75;100.00;101720.66;5240465;28;20131;-91
2022/07/30 05:59:41;;;;;;;19.80;17.88;;;;;;;15.81;100.00;101900.06;5249788;28;20086;-90
2022/07/30 06:02:12;;;;;;;20.58;18.90;;;;;;;15.41;100.00;101838.81;5246710;28;20058;-89
2022/07/30 06:04:45;;;;;;;20.83;18.45;;;;;;;15.92;100.00;101901.72;5233168;28;20032;-89
2022/07/30 06:07:16;;;;;;;17.88;16.33;;;;;;;16.00;100.00;101884.88;5233786;28;20494;-91
2022/07/30 06:09:46;;;;;;;20.60;18.98;;;;;;;15.51;100.00;101813.56;5252439;28;20077;-89
2022/07/30 06:12:17;;;;;;;19.27;17.70;;;;;;;15.28;100.00;101759.59;5233445;28;20469;-89
2022/07/30 06:14:47;;;;;;;21.00;18.98;;;;;;;14.86;100.00;101693.25;5251227;28;20024;-89
2022/07/30 06:17:17;;;;;;;22.60;20.40;;;;;;;15.62;100.00;101838.94;5232605;28;20055;-88
2022/07/30 06:19:49;;;;;;;21.27;19.60;;;;;;;15.89;100.00;101850.50;5226686;28;20138;-88
2022/07/30 06:22:20;;;;;;;22.85;20.75;;;;;;;15.12;100.00;101701.53;5211789;28;20114;-90
2022/07/30 06:24:50;;;;;;;21.60;19.90;;;;;;;16.34;100.00;101895.31;5229805;28;20547;-90
2022/07/30 06:27:29;;;;;;;19.85;18.35;;;;;;;16.41;100.00;101887.72;5229815;28;20146;-91
2022/07/30 06:30:00;;;;;;;24.40;22.23;;;;;;;15.35;100.00;101755.50;5212342;28;20025;-90
2022/07/30 06:32:31;;;;;;;21.90;20.08;;;;;;;16.52;100.00;101928.34;5211742;28;20066;-90
2022/07/30 06:35:02;;;;;;;19.52;17.83;;;;;;;14.92;100.00;101628.84;5229491;28;20021;-90
2022/07/30 06:37:35;;;;;;;20.98;19.27;;;;;;;16.78;100.00;101910.13;5212108;28;20021;-90
2022/07/30 06:43:07;;;;;;;11.85;10.68;;;;;;;15.57;100.00;101681.88;5229920;28;20051;-90
2022/07/30 06:45:38;;;;;;;10.48;9.55;;;;;;;16.15;100.00;101742.41;5230502;28;20103;-89
2022/07/30 06:48:43;;;;;;;9.80;8.23;;;;;;;17.72;100.00;101905.94;5213270;28;20092;-89
2022/07/30 06:51:55;;;;;;;12.98;8.82;;;;;;;16.90;100.00;101723.53;5189359;28;20044;-91
2022/07/30 06:55:41;;;;;;;10.85;9.77;;;;;;;17.48;100.00;101760.97;5204221;28;20029;-91
2022/07/30 06:58:34;;;;;;;10.55;9.57;;;;;;;17.35;100.00;101681.56;5166642;28;20052;-91
2022/07/30 07:01:05;;;;;;;10.00;9.30;;;;;;;18.42;100.00;101807.44;5210337;28;20447;-90
2022/07/30 07:03:36;;;;;;;8.10;7.45;;;;;;;18.68;100.00;101855.41;5212209;28;20020;-88
2022/07/30 07:06:10;;;;;;;7.03;6.40;;;;;;;19.06;100.00;101882.97;5213817;28;20112;-88
2022/07/30 07:08:43;;;;;;;8.90;8.05;;;;;;;18.55;100.00;101752.06;5217994;28;20098;-88
2022/07/30 07:11:13;;;;;;;6.93;6.43;;;;;;;19.48;100.00;101871.31;5213905;28;20044;-89
2022/07/30 07:13:46;;;;;;;6.65;5.43;;;;;;;18.74;100.00;101722.09;5214518;28;20031;-87
2022/07/30 07:16:37;;;;;;;5.15;4.63;;;;;;;19.39;100.00;101790.88;5216046;28;20029;-89
2022/07/30 07:19:23;;;;;;;5.80;5.07;;;;;;;19.26;100.00;101756.81;5217299;28;20043;-90
2022/07/30 07:21:53;;;;;;;5.43;5.00;;;;;;;20.15;100.00;101864.75;5216820;28;20029;-90
2022/07/30 07:25:05;;;;;;;5.07;4.22;;;;;;;19.36;100.00;101695.59;5219024;28;20482;-90
2022/07/30 07:27:36;;;;;;;4.47;4.28;;;;;;;19.91;100.00;101772.72;5170652;28;20041;-91
2022/07/30 07:30:21;;;;;;;8.00;5.05;;;;;;;19.42;100.00;101659.63;5217127;28;20040;-90
2022/07/30 07:33:10;;;;;;;4.40;4.03;;;;;;;21.36;100.00;101932.59;5215142;28;20032;-90
2022/07/30 07:35:44;;;;;;;;;;;;;;;21.61;100.00;101912.03;5226503;28;20029;-90
2022/07/30 07:38:17;;;;;;;3.60;3.38;;;;;;;20.09;100.00;101682.19;5226846;28;19913;-91
2022/07/30 07:40:47;;;;;;;5.50;4.75;;;;;;;21.60;100.00;101924.16;5239548;28;20036;-89
2022/07/30 07:43:18;;;;;;;3.22;3.10;;;;;;;21.57;100.00;101913.78;5210105;28;20029;-90
2022/07/30 07:45:48;;;;;;;4.85;3.97;;;;;;;20.23;100.00;101677.53;5228621;28;20536;-90
2022/07/30 07:48:21;;;;;;;5.50;5.20;;;;;;;20.50;100.00;101717.19;5228192;28;20033;-92
2022/07/30 07:51:02;;;;;;;6.88;4.07;;;;;;;21.79;100.00;101921.31;5210138;28;20112;-89
2022/07/30 07:53:41;;;;;;;4.32;4.03;;;;;;;22.08;100.00;101923.75;5209899;28;20100;-89
2022/07/30 07:56:35;;;;;;;3.42;3.25;;;;;;;21.83;100.00;101823.31;5227333;28;20029;-89
2022/07/30 07:59:11;;;;;;;4.05;3.67;;;;;;;22.52;100.00;101901.03;5204973;28;20101;-89
2022/07/30 08:01:45;;;;;;;4.60;4.30;;;;;;;21.67;100.00;101720.31;5209010;28;20091;-90
2022/07/30 08:04:24;;;;;;;3.47;3.28;;;;;;;22.40;100.00;101854.78;5209387;28;20084;-91
2022/07/30 08:07:24;;;;;;;3.03;2.42;;;;;;;22.41;100.00;101877.63;5211975;28;20031;-90
2022/07/30 08:10:49;;;;;;;8.10;3.88;;;;;;;21.12;100.00;101712.94;5234638;28;20041;-93
2022/07/30 08:13:25;;;;;;;3.38;3.25;;;;;;;22.88;100.00;101910.06;5231667;28;20045;-90
2022/07/30 08:15:58;;;;;;;4.40;4.10;;;;;;;21.85;100.00;101749.59;5240717;28;20033;-89
2022/07/30 08:18:29;;;;;;;7.72;3.97;;;;;;;22.85;100.00;101943.75;5240885;28;20078;-91
2022/07/30 08:21:00;;;;;;;4.38;4.10;;;;;;;21.27;100.00;101665.16;5214002;28;20417;-90
2022/07/30 08:23:31;;;;;;;4.00;3.72;;;;;;;22.00;100.00;101720.91;5228715;28;20059;-90
2022/07/30 08:26:01;;;;;;;5.03;3.15;;;;;;;22.41;100.00;101740.00;5215901;28;20021;-90
2022/07/30 08:28:34;;;;;;;4.45;4.07;;;;;;;21.84;100.00;101615.97;5221756;28;20055;-88
2022/07/30 08:31:04;;;;;;;2.58;2.47;;;;;;;22.77;100.00;101743.44;5213374;28;20025;-89
2022/07/30 08:33:35;;;;;;;5.53;3.92;;;;;;;23.23;100.00;101792.59;5231686;28;20098;-89
2022/07/30 08:36:35;;;;;;;8.82;4.78;;;;;;;22.56;100.00;101659.75;5230883;28;20418;-88
2022/07/30 08:39:08;;;;;;;3.55;3.30;;;;;;;23.66;100.00;101825.03;5230286;28;20385;-90
2022/07/30 08:41:40;;;;;;;4.93;3.85;;;;;;;23.76;100.00;101823.91;5211112;28;20623;-90
2022/07/30 08:44:11;;;;;;;3.33;3.13;;;;;;;23.65;100.00;101806.88;5210599;28;20036;-90
2022/07/30 08:46:44;;;;;;;3.28;3.08;;;;;;;22.16;100.00;101599.22;5210119;28;20025;-90
2022/07/30 08:49:16;;;;;;;3.17;3.08;;;;;;;24.15;100.00;101914.88;5210638;28;20078;-91
2022/07/30 08:51:48;;;;;;;3.17;2.97;;;;;;;24.10;100.00;101912.25;5212020;28;20029;-90
2022/07/30 08:54:19;;;;;;;2.85;2.75;;;;;;;23.41;100.00;101770.59;5230934;28;20044;-90
2022/07/30 08:56:49;;;;;;;3.75;3.25;;;;;;;23.99;100.00;101817.13;5248056;28;20072;-88
2022/07/30 08:59:23;;;;;;;3.10;2.28;;;;;;;22.94;100.00;101616.03;5218657;28;20040;-89
2022/07/30 09:01:53;;;;;;;2.85;2.65;;;;;;;24.53;100.00;101837.78;5208565;28;20031;-88
2022/07/30 09:04:24;;;;;;;2.80;2.70;;;;;;;24.19;100.00;101758.53;5226361;28;20390;-88
2022/07/30 09:06:56;;;;;;;2.75;2.63;;;;;;;24.06;95.78;101791.81;5209224;28;20025;-88
2022/07/30 09:09:26;;;;;;;4.90;3.78;;;;;;;23.74;95.63;101768.25;5227579;28;20025;-87
2022/07/30 09:11:58;;;;;;;2.90;2.70;;;;;;;23.16;96.93;101706.81;5227793;28;20025;-87
2022/07/30 09:14:28;;;;;;;2.85;2.70;;;;;;;24.03;96.63;101883.50;5209471;28;20021;-87
2022/07/30 09:16:58;;;;;;;2.65;2.55;;;;;;;23.67;97.43;101864.47;5208912;28;20036;-87
2022/07/30 09:19:29;;;;;;;5.55;2.83;;;;;;;23.75;98.14;101823.09;5226615;28;20120;-87
2022/07/30 09:22:00;;;;;;;2.92;2.63;;;;;;;24.63;95.98;101902.91;5229005;28;20021;-86
2022/07/30 09:24:40;;;;;;;3.70;3.40;;;;;;;24.77;92.32;101906.31;5209805;28;20021;-87
2022/07/30 09:27:11;;;;;;;3.90;3.15;;;;;;;24.55;92.47;101862.28;5212068;28;20032;-88
2022/07/30 09:29:41;;;;;;;2.47;2.08;;;;;;;24.77;89.11;101911.03;5226558;28;20029;-87
2022/07/30 09:34:49;;;;;;;7.40;3.42;;;;;;;24.97;90.34;101892.97;5306250;22;20044;-86
2022/07/30 09:37:19;;;;;;;4.15;2.25;;;;;;;24.92;86.23;101899.47;5255256;28;20032;-87
2022/07/30 09:39:49;;;;;;;2.45;2.30;;;;;;;24.86;87.96;101884.19;5255074;28;20370;-85
2022/07/30 09:42:24;;;;;;;9.98;2.55;;;;;;;25.31;91.16;101890.13;5275554;28;20032;-85
2022/07/30 09:45:12;;;;;;;6.18;2.40;;;;;;;25.43;83.56;101881.91;5254546;28;20032;-84
2022/07/30 09:47:44;;;;;;;1.92;1.92;;;;;;;25.54;88.08;101876.84;5279471;28;20024;-84
2022/07/30 09:50:19;;;;;;;2.47;2.38;;;;;;;25.72;84.32;101858.22;5261348;28;20039;-84
2022/07/30 09:52:50;;;;;;;3.65;3.20;;;;;;;26.07;82.62;101870.69;5278679;28;20046;-85
2022/07/30 09:55:34;;;;;;;2.55;2.13;;;;;;;26.37;82.09;101856.81;5282781;28;20020;-84
2022/07/30 09:58:06;;;;;;;8.00;3.20;;;;;;;26.89;82.70;101874.56;5265079;28;20042;-85
2022/07/30 10:00:37;;;;;;;4.43;2.67;;;;;;;27.15;77.02;101874.28;5282553;28;20020;-85
2022/07/30 10:03:23;;;;;;;6.15;2.78;;;;;;;27.43;77.49;101873.66;5264830;28;20024;-85
2022/07/30 10:05:56;;;;;;;2.13;2.03;;;;;;;27.51;74.22;101870.75;5281917;28;20028;-84
2022/07/30 10:08:49;;;;;;;2.40;2.22;;;;;;;27.55;71.76;101888.31;5282425;28;20051;-84
2022/07/30 10:11:22;;;;;;;5.78;3.65;;;;;;;27.28;71.92;101838.25;5282838;28;20032;-85
2022/07/30 10:13:57;;;;;;;3.58;2.45;;;;;;;27.89;70.77;101870.41;5282824;28;20028;-86
2022/07/30 10:16:28;;;;;;;2.08;1.98;;;;;;;27.63;70.42;101841.41;5283539;28;20099;-85
2022/07/30 10:18:59;;;;;;;2.42;2.25;;;;;;;27.67;72.16;101831.25;5281986;28;20103;-86
2022/07/30 10:21:30;;;;;;;1.98;1.88;;;;;;;27.94;69.05;101830.50;5263830;28;20428;-86
2022/07/30 10:24:01;;;;;;;2.35;2.25;;;;;;;27.97;68.13;101865.09;5282730;28;20026;-84
2022/07/30 10:26:34;;;;;;;2.35;2.28;;;;;;;28.32;68.60;101870.91;5281221;28;20524;-84
2022/07/30 10:29:05;;;;;;;3.72;2.63;;;;;;;28.52;69.99;101850.47;5263900;28;20430;-83
2022/07/30 10:31:36;;;;;;;2.17;2.08;;;;;;;28.77;68.40;101854.75;5248042;28;20104;-86
2022/07/30 10:34:06;;;;;;;2.35;2.25;;;;;;;28.51;65.10;101796.06;5258342;28;20039;-87
2022/07/30 10:36:40;;;;;;;3.80;3.58;;;;;;;28.67;64.12;101849.69;5260935;28;20058;-85
2022/07/30 10:39:16;;;;;;;4.88;3.03;;;;;;;28.42;64.39;101864.88;5278106;28;20024;-86
2022/07/30 10:42:04;;;;;;;4.72;2.67;;;;;;;28.01;64.37;101888.22;5275484;28;20028;-86
2022/07/30 10:44:53;;;;;;;2.65;2.00;;;;;;;27.66;68.39;101887.91;5259159;28;20046;-84
2022/07/30 10:47:25;;;;;;;3.70;2.78;;;;;;;27.63;66.99;101833.91;5239174;28;20070;-84
2022/07/30 10:50:16;;;;;;;2.70;2.28;;;;;;;28.44;67.18;101876.44;5242833;28;20024;-84
2022/07/30 10:52:50;;;;;;;2.90;2.60;;;;;;;28.40;66.60;101884.66;5262061;28;20535;-84
2022/07/30 10:55:26;;;;;;;2.53;2.33;;;;;;;28.38;64.59;101875.06;5259990;28;20339;-84
2022/07/30 10:57:56;;;;;;;3.70;2.70;;;;;;;28.71;66.08;101874.81;5260052;28;20028;-84
2022/07/30 11:00:28;;;;;;;2.60;2.50;;;;;;;28.62;64.42;101869.41;5260219;28;20505;-84
2022/07/30 11:03:13;;;;;;;2.95;2.75;;;;;;;28.49;63.23;101870.63;5260602;28;20095;-85
2022/07/30 11:05:46;;;;;;;2.78;2.58;;;;;;;28.59;65.32;101864.53;5254516;28;20502;-85
2022/07/30 11:08:30;;;;;;;2.58;2.47;;;;;;;28.85;65.17;101862.16;5240536;28;20025;-86
2022/07/30 11:11:01;;;;;;;3.38;2.80;;;;;;;28.81;62.38;101821.50;5261010;28;20086;-85
2022/07/30 11:13:56;;;;;;;2.80;2.20;;;;;;;28.88;61.74;101861.41;5258420;28;20020;-85
2022/07/30 11:16:50;;;;;;;7.20;2.17;;;;;;;28.87;62.14;101864.59;5222184;28;20033;-85
2022/07/30 11:19:23;;;;;;;1.90;1.80;;;;;;;28.88;64.52;101855.84;5230686;28;20067;-85
2022/07/30 11:22:24;;;;;;;2.67;2.47;;;;;;;29.34;64.62;101872.13;5239257;28;20025;-85
2022/07/30 11:24:55;;;;;;;2.35;2.22;;;;;;;29.42;65.53;101844.16;5239774;28;20033;-85
2022/07/30 11:27:38;;;;;;;3.42;2.47;;;;;;;29.51;61.54;101858.69;5239906;28;20036;-85
2022/07/30 11:30:14;;;;;;;2.25;2.05;;;;;;;29.54;62.52;101859.94;5220884;28;20033;-85
2022/07/30 11:32:50;;;;;;;2.10;2.00;;;;;;;28.93;62.02;101832.53;5239408;28;20039;-85
2022/07/30 11:35:26;;;;;;;2.50;2.30;;;;;;;28.66;63.05;101831.41;5238612;28;20021;-86
2022/07/30 11:37:59;;;;;;;3.15;2.97;;;;;;;28.72;63.23;101840.28;5221930;28;20410;-85
2022/07/30 11:40:31;;;;;;;1.80;1.77;;;;;;;29.02;63.86;101854.63;5222148;28;20059;-85
2022/07/30 11:43:23;;;;;;;3.80;2.65;;;;;;;28.75;63.04;101856.25;5239097;28;20016;-86
2022/07/30 11:46:21;;;;;;;3.38;2.38;;;;;;;28.86;62.51;101854.63;5240022;28;20071;-85
2022/07/30 11:49:01;;;;;;;3.55;3.35;;;;;;;28.53;63.26;101808.44;5243332;28;20028;-84
2022/07/30 11:51:43;;;;;;;3.25;3.05;;;;;;;28.50;63.34;101805.56;5267375;28;20032;-83
2022/07/30 11:54:14;;;;;;;9.95;4.28;;;;;;;28.72;63.28;101854.19;5258444;28;20060;-83
2022/07/30 11:56:58;;;;;;;3.78;2.67;;;;;;;28.59;66.51;101825.63;5259625;28;20028;-83
2022/07/30 11:59:28;;;;;;;3.20;3.00;;;;;;;29.18;65.65;101827.59;5259758;28;20051;-83